createdAt,value
2022-11-29T00:00:53.564Z,1021.17
2022-11-29T00:01:53.652Z,1021.59
2022-11-29T00:02:53.586Z,1021.98
2022-11-29T00:03:53.513Z,1022.23
2022-11-29T00:04:53.515Z,1022.36
2022-11-29T00:05:53.508Z,1022.12
2022-11-29T00:06:53.519Z,1021.81
2022-11-29T00:07:53.495Z,1021.53
2022-11-29T00:08:53.479Z,1021.49
2022-11-29T00:09:53.449Z,1021.69
2022-11-29T00:10:53.440Z,1021.55
2022-11-29T00:11:53.442Z,1021.30
2022-11-29T00:12:53.424Z,1021.12
2022-11-29T00:13:53.415Z,1021.11
2022-11-29T00:14:53.399Z,1021.14
2022-11-29T00:15:53.402Z,1021.31
2022-11-29T00:16:53.438Z,1021.41
2022-11-29T00:17:53.351Z,1020.91
2022-11-29T00:18:53.350Z,1020.55
2022-11-29T00:19:53.341Z,1020.16
2022-11-29T00:20:53.324Z,1020.01
2022-11-29T00:21:53.352Z,1020.12
2022-11-29T00:22:53.301Z,1020.28
2022-11-29T00:23:53.299Z,1020.53
2022-11-29T00:24:53.269Z,1020.84
2022-11-29T00:25:53.315Z,1020.88
2022-11-29T00:26:53.268Z,1021.10
2022-11-29T00:27:53.240Z,1021.11
2022-11-29T00:28:53.246Z,1020.52
2022-11-29T00:29:53.228Z,1020.14
2022-11-29T00:30:53.252Z,1020.16
2022-11-29T00:31:53.203Z,1020.22
2022-11-29T00:32:53.201Z,1020.43
2022-11-29T00:33:53.173Z,1020.51
2022-11-29T00:34:53.163Z,1020.73
2022-11-29T00:35:53.154Z,1020.88
2022-11-29T00:36:53.181Z,1021.00
2022-11-29T00:37:53.132Z,1020.75
2022-11-29T00:38:53.113Z,1020.76
2022-11-29T00:39:53.116Z,1020.81
2022-11-29T00:40:53.091Z,1021.05
2022-11-29T00:41:53.122Z,1021.09
2022-11-29T00:42:53.095Z,1021.04
2022-11-29T00:43:53.082Z,1021.06
2022-11-29T00:44:53.043Z,1020.90
2022-11-29T00:45:53.083Z,1020.84
2022-11-29T00:46:53.076Z,1020.93
2022-11-29T00:47:53.025Z,1021.00
2022-11-29T00:48:53.010Z,1021.27
2022-11-29T00:49:52.994Z,1021.46
2022-11-29T00:50:53.023Z,1021.57
2022-11-29T00:51:52.972Z,1021.26
2022-11-29T00:52:52.963Z,1021.27
2022-11-29T00:53:52.959Z,1021.51
2022-11-29T00:54:52.936Z,1021.63
2022-11-29T00:55:52.944Z,1021.64
2022-11-29T00:56:52.929Z,1021.74
2022-11-29T00:57:52.914Z,1022.14
2022-11-29T00:58:52.883Z,1022.11
2022-11-29T00:59:52.885Z,1021.94
2022-11-29T01:00:52.933Z,1021.75
2022-11-29T01:01:52.874Z,1021.99
2022-11-29T01:02:52.853Z,1022.05
2022-11-29T01:03:52.890Z,1021.93
2022-11-29T01:04:52.844Z,1021.67
2022-11-29T01:05:52.819Z,1021.70
2022-11-29T01:06:52.892Z,1021.22
2022-11-29T01:07:52.811Z,1021.04
2022-11-29T01:08:52.775Z,1020.95
2022-11-29T01:09:52.755Z,1020.92
2022-11-29T01:10:52.778Z,1021.15
2022-11-29T01:11:52.755Z,1021.01
2022-11-29T01:12:52.725Z,1020.96
2022-11-29T01:13:52.727Z,1020.87
2022-11-29T01:14:52.725Z,1020.67
2022-11-29T01:15:52.717Z,1020.50
2022-11-29T01:16:52.758Z,1020.20
2022-11-29T01:17:52.685Z,1020.22
2022-11-29T01:18:52.666Z,1020.48
2022-11-29T01:19:52.657Z,1020.42
2022-11-29T01:20:52.659Z,1020.41
2022-11-29T01:21:52.666Z,1020.30
2022-11-29T01:22:52.617Z,1019.94
2022-11-29T01:23:52.616Z,1019.65
2022-11-29T01:24:52.614Z,1019.33
2022-11-29T01:25:52.595Z,1019.31
2022-11-29T01:26:52.619Z,1019.76
2022-11-29T01:27:52.913Z,1019.82
2022-11-29T01:28:52.558Z,1019.56
2022-11-29T01:29:52.538Z,1019.31
2022-11-29T01:30:52.584Z,1019.13
2022-11-29T01:31:52.547Z,1019.44
2022-11-29T01:32:52.505Z,1019.76
2022-11-29T01:33:52.507Z,1019.37
2022-11-29T01:34:52.497Z,1018.88
2022-11-29T01:35:52.496Z,1018.83
2022-11-29T01:36:52.504Z,1018.98
2022-11-29T01:37:52.776Z,1019.15
2022-11-29T01:38:52.453Z,1019.43
2022-11-29T01:39:52.459Z,1019.67
2022-11-29T01:40:52.421Z,1019.69
2022-11-29T01:41:52.428Z,1019.95
2022-11-29T01:42:52.389Z,1020.36
2022-11-29T01:43:52.396Z,1020.03
2022-11-29T01:44:52.388Z,1020.16
2022-11-29T01:45:52.401Z,1020.45
2022-11-29T01:46:52.388Z,1020.28
2022-11-29T01:47:52.449Z,1019.72
2022-11-29T01:48:52.339Z,1019.68
2022-11-29T01:49:52.311Z,1019.92
2022-11-29T01:50:52.305Z,1020.23
2022-11-29T01:51:52.319Z,1020.24
2022-11-29T01:52:52.289Z,1019.72
2022-11-29T01:53:52.269Z,1019.49
2022-11-29T01:54:52.269Z,1019.43
2022-11-29T01:55:52.268Z,1019.68
2022-11-29T01:56:56.289Z,1019.98
2022-11-29T01:57:52.314Z,1019.92
2022-11-29T01:58:52.337Z,1019.43
2022-11-29T01:59:52.214Z,1019.32
2022-11-29T02:00:52.252Z,1019.86
2022-11-29T02:01:52.204Z,1020.10
2022-11-29T02:02:52.277Z,1020.24
2022-11-29T02:03:52.159Z,1020.08
2022-11-29T02:04:52.152Z,1019.87
2022-11-29T02:05:52.132Z,1020.17
2022-11-29T02:06:52.151Z,1020.17
2022-11-29T02:07:52.213Z,1020.38
2022-11-29T02:08:52.115Z,1020.61
2022-11-29T02:09:52.101Z,1020.62
2022-11-29T02:10:52.099Z,1020.71
2022-11-29T02:11:52.090Z,1020.68
2022-11-29T02:12:52.072Z,1020.65
2022-11-29T02:13:52.046Z,1020.31
2022-11-29T02:14:52.044Z,1020.49
2022-11-29T02:15:52.048Z,1020.42
2022-11-29T02:16:56.444Z,1020.56
2022-11-29T02:17:52.014Z,1020.49
2022-11-29T02:18:51.992Z,1020.13
2022-11-29T02:19:51.992Z,1019.68
2022-11-29T02:20:51.976Z,1019.16
2022-11-29T02:21:51.984Z,1019.02
2022-11-29T02:22:51.989Z,1019.34
2022-11-29T02:23:51.951Z,1020.12
2022-11-29T02:24:51.933Z,1020.73
2022-11-29T02:25:51.934Z,1020.96
2022-11-29T02:26:51.954Z,1021.05
2022-11-29T02:27:51.893Z,1021.14
2022-11-29T02:28:51.876Z,1021.16
2022-11-29T02:29:51.893Z,1021.26
2022-11-29T02:30:51.908Z,1021.47
2022-11-29T02:31:51.984Z,1021.52
2022-11-29T02:32:51.844Z,1021.52
2022-11-29T02:33:51.835Z,1021.50
2022-11-29T02:34:51.822Z,1021.52
2022-11-29T02:35:51.806Z,1021.76
2022-11-29T02:36:51.866Z,1021.71
2022-11-29T02:37:51.793Z,1021.78
2022-11-29T02:38:51.764Z,1021.59
2022-11-29T02:39:51.772Z,1021.49
2022-11-29T02:40:51.767Z,1020.67
2022-11-29T02:41:51.764Z,1020.55
2022-11-29T02:42:56.529Z,1020.76
2022-11-29T02:43:52.732Z,1020.87
2022-11-29T02:44:51.707Z,1020.74
2022-11-29T02:45:51.779Z,1020.72
2022-11-29T02:46:51.705Z,1020.87
2022-11-29T02:47:51.723Z,1020.83
2022-11-29T02:48:51.656Z,1020.79
2022-11-29T02:49:51.655Z,1020.40
2022-11-29T02:50:51.655Z,1020.31
2022-11-29T02:51:51.626Z,1020.40
2022-11-29T02:52:51.635Z,1020.33
2022-11-29T02:53:51.605Z,1020.23
2022-11-29T02:54:51.634Z,1020.02
2022-11-29T02:55:51.576Z,1019.87
2022-11-29T02:56:51.646Z,1020.30
2022-11-29T02:57:51.606Z,1020.56
2022-11-29T02:58:51.544Z,1020.39
2022-11-29T02:59:51.531Z,1020.06
2022-11-29T03:00:51.526Z,1020.27
2022-11-29T03:01:51.558Z,1020.49
2022-11-29T03:02:51.586Z,1020.24
2022-11-29T03:03:51.503Z,1020.36
2022-11-29T03:04:51.488Z,1020.53
2022-11-29T03:05:51.468Z,1020.57
2022-11-29T03:06:51.496Z,1020.13
2022-11-29T03:07:51.523Z,1019.69
2022-11-29T03:08:51.436Z,1019.56
2022-11-29T03:09:51.430Z,1019.91
2022-11-29T03:10:51.427Z,1019.93
2022-11-29T03:11:51.416Z,1019.76
2022-11-29T03:12:51.420Z,1020.07
2022-11-29T03:13:51.377Z,1020.08
2022-11-29T03:14:51.377Z,1020.37
2022-11-29T03:15:51.409Z,1020.31
2022-11-29T03:16:51.356Z,1020.27
2022-11-29T03:17:51.339Z,1020.11
2022-11-29T03:18:51.321Z,1019.61
2022-11-29T03:19:51.308Z,1019.61
2022-11-29T03:20:51.299Z,1019.67
2022-11-29T03:21:51.298Z,1019.90
2022-11-29T03:22:51.279Z,1019.41
2022-11-29T03:23:51.257Z,1019.05
2022-11-29T03:24:51.259Z,1019.01
2022-11-29T03:25:51.257Z,1018.97
2022-11-29T03:26:51.228Z,1018.72
2022-11-29T03:27:51.259Z,1018.82
2022-11-29T03:28:51.265Z,1018.95
2022-11-29T03:29:51.211Z,1019.05
2022-11-29T03:30:51.252Z,1019.30
2022-11-29T03:31:51.190Z,1019.29
2022-11-29T03:32:51.179Z,1019.08
2022-11-29T03:33:51.151Z,1018.97
2022-11-29T03:34:55.759Z,1019.18
2022-11-29T03:35:52.141Z,1019.05
2022-11-29T03:36:51.130Z,1018.90
2022-11-29T03:37:51.124Z,1018.85
2022-11-29T03:38:51.114Z,1018.61
2022-11-29T03:39:51.100Z,1018.24
2022-11-29T03:40:51.070Z,1018.59
2022-11-29T03:41:51.092Z,1018.90
2022-11-29T03:42:51.050Z,1019.15
2022-11-29T03:43:51.042Z,1018.93
2022-11-29T03:44:51.029Z,1018.60
2022-11-29T03:45:51.027Z,1018.30
2022-11-29T03:46:51.012Z,1018.18
2022-11-29T03:47:51.009Z,1018.05
2022-11-29T03:48:51.252Z,1018.37
2022-11-29T03:49:50.999Z,1019.01
2022-11-29T03:50:50.970Z,1019.70
2022-11-29T03:51:50.988Z,1020.06
2022-11-29T03:52:50.973Z,1020.12
2022-11-29T03:53:50.924Z,1020.11
2022-11-29T03:54:50.914Z,1019.73
2022-11-29T03:55:50.914Z,1019.71
2022-11-29T03:56:50.903Z,1020.09
2022-11-29T03:57:50.925Z,1020.06
2022-11-29T03:58:50.882Z,1019.97
2022-11-29T03:59:50.871Z,1019.23
2022-11-29T04:00:50.861Z,1018.81
2022-11-29T04:01:50.896Z,1019.09
2022-11-29T04:02:50.993Z,1019.27
2022-11-29T04:03:50.825Z,1019.25
2022-11-29T04:04:50.802Z,1019.28
2022-11-29T04:05:50.802Z,1019.26
2022-11-29T04:06:50.815Z,1018.95
2022-11-29T04:07:50.832Z,1018.71
2022-11-29T04:08:50.756Z,1018.67
2022-11-29T04:09:50.763Z,1018.80
2022-11-29T04:10:50.770Z,1018.80
2022-11-29T04:11:51.004Z,1019.03
2022-11-29T04:12:50.726Z,1018.78
2022-11-29T04:13:50.713Z,1019.02
2022-11-29T04:14:50.698Z,1018.90
2022-11-29T04:15:50.730Z,1019.00
2022-11-29T04:16:50.694Z,1018.76
2022-11-29T04:17:50.663Z,1018.21
2022-11-29T04:18:50.664Z,1017.54
2022-11-29T04:19:50.644Z,1017.15
2022-11-29T04:20:50.638Z,1017.00
2022-11-29T04:21:50.614Z,1016.73
2022-11-29T04:22:50.615Z,1016.45
2022-11-29T04:23:50.607Z,1016.64
2022-11-29T04:24:50.584Z,1017.03
2022-11-29T04:25:50.566Z,1017.07
2022-11-29T04:26:50.567Z,1017.49
2022-11-29T04:27:50.568Z,1017.43
2022-11-29T04:28:50.555Z,1017.45
2022-11-29T04:29:50.536Z,1017.36
2022-11-29T04:30:50.547Z,1017.08
2022-11-29T04:31:50.516Z,1016.81
2022-11-29T04:32:50.501Z,1017.00
2022-11-29T04:33:50.514Z,1017.28
2022-11-29T04:34:50.476Z,1017.60
2022-11-29T04:35:50.453Z,1017.33
2022-11-29T04:36:50.464Z,1017.21
2022-11-29T04:37:50.444Z,1017.20
2022-11-29T04:38:50.442Z,1017.15
2022-11-29T04:39:50.413Z,1017.59
2022-11-29T04:40:50.414Z,1017.55
2022-11-29T04:41:50.398Z,1017.62
2022-11-29T04:42:50.384Z,1017.31
2022-11-29T04:43:50.385Z,1017.33
2022-11-29T04:44:50.386Z,1017.25
2022-11-29T04:45:50.337Z,1017.09
2022-11-29T04:46:50.335Z,1016.98
2022-11-29T04:47:50.337Z,1016.83
2022-11-29T04:48:50.336Z,1016.75
2022-11-29T04:49:50.297Z,1016.61
2022-11-29T04:50:50.342Z,1016.59
2022-11-29T04:51:50.286Z,1016.56
2022-11-29T04:52:50.278Z,1016.27
2022-11-29T04:53:50.274Z,1015.73
2022-11-29T04:54:50.254Z,1015.40
2022-11-29T04:55:50.261Z,1015.59
2022-11-29T04:56:50.217Z,1015.26
2022-11-29T04:57:50.243Z,1015.26
2022-11-29T04:58:50.198Z,1015.54
2022-11-29T04:59:50.177Z,1015.40
2022-11-29T05:00:50.189Z,1015.22
2022-11-29T05:01:50.302Z,1015.07
2022-11-29T05:02:50.220Z,1014.74
2022-11-29T05:03:55.423Z,1014.84
2022-11-29T05:04:51.138Z,1015.08
2022-11-29T05:05:50.120Z,1015.15
2022-11-29T05:06:50.113Z,1014.82
2022-11-29T05:07:50.122Z,1014.91
2022-11-29T05:08:50.099Z,1014.99
2022-11-29T05:09:50.112Z,1014.83
2022-11-29T05:10:50.062Z,1015.08
2022-11-29T05:11:50.075Z,1015.03
2022-11-29T05:12:50.038Z,1014.50
2022-11-29T05:13:50.048Z,1014.41
2022-11-29T05:14:50.024Z,1014.30
2022-11-29T05:15:50.179Z,1013.86
2022-11-29T05:16:49.999Z,1013.78
2022-11-29T05:17:49.974Z,1013.66
2022-11-29T05:18:49.994Z,1013.74
2022-11-29T05:19:49.949Z,1013.34
2022-11-29T05:20:49.951Z,1013.34
2022-11-29T05:21:49.943Z,1012.81
2022-11-29T05:22:49.950Z,1012.14
2022-11-29T05:23:49.948Z,1011.73
2022-11-29T05:24:50.021Z,1011.12
2022-11-29T05:25:49.910Z,1010.75
2022-11-29T05:26:49.888Z,1010.90
2022-11-29T05:27:49.871Z,1010.73
2022-11-29T05:28:49.891Z,1010.38
2022-11-29T05:29:49.855Z,1009.97
2022-11-29T05:30:49.894Z,1009.22
2022-11-29T05:31:49.832Z,1008.95
2022-11-29T05:32:49.839Z,1007.96
2022-11-29T05:33:49.832Z,1007.71
2022-11-29T05:34:50.289Z,1007.17
2022-11-29T05:35:49.784Z,1006.58
2022-11-29T05:36:49.773Z,1007.02
2022-11-29T05:37:49.760Z,1006.66
2022-11-29T05:38:49.761Z,1006.25
2022-11-29T05:39:49.783Z,1006.17
2022-11-29T05:40:49.744Z,1006.37
2022-11-29T05:41:49.715Z,1006.24
2022-11-29T05:42:49.722Z,1006.58
2022-11-29T05:43:49.722Z,1006.82
2022-11-29T05:44:49.682Z,1006.18
2022-11-29T05:45:49.673Z,1005.92
2022-11-29T05:46:49.763Z,1006.00
2022-11-29T05:47:49.718Z,1006.27
2022-11-29T05:48:49.633Z,1006.22
2022-11-29T05:49:49.662Z,1005.68
2022-11-29T05:50:49.614Z,1006.09
2022-11-29T05:51:49.604Z,1006.24
2022-11-29T05:52:49.605Z,1005.66
2022-11-29T05:53:49.594Z,1005.21
2022-11-29T05:54:49.588Z,1004.72
2022-11-29T05:55:49.561Z,1005.07
2022-11-29T05:56:49.562Z,1004.97
2022-11-29T05:57:49.532Z,1004.81
2022-11-29T05:58:49.520Z,1005.29
2022-11-29T05:59:49.551Z,1005.10
2022-11-29T06:00:49.534Z,1005.37
2022-11-29T06:01:49.551Z,1005.27
2022-11-29T06:02:49.556Z,1005.39
2022-11-29T06:03:49.555Z,1005.26
2022-11-29T06:04:49.478Z,1004.80
2022-11-29T06:05:49.464Z,1004.59
2022-11-29T06:06:49.445Z,1004.22
2022-11-29T06:07:49.441Z,1004.68
2022-11-29T06:08:49.404Z,1004.78
2022-11-29T06:09:49.425Z,1004.59
2022-11-29T06:10:49.397Z,1004.79
2022-11-29T06:11:49.382Z,1005.27
2022-11-29T06:12:49.375Z,1005.40
2022-11-29T06:13:49.365Z,1005.55
2022-11-29T06:14:49.643Z,1005.58
2022-11-29T06:15:49.360Z,1006.07
2022-11-29T06:16:49.333Z,1006.36
2022-11-29T06:17:49.337Z,1006.07
2022-11-29T06:18:50.089Z,1005.69
2022-11-29T06:19:49.405Z,1005.15
2022-11-29T06:20:49.291Z,1004.99
2022-11-29T06:21:49.286Z,1004.33
2022-11-29T06:22:49.327Z,1004.11
2022-11-29T06:23:49.247Z,1004.35
2022-11-29T06:24:49.244Z,1004.37
2022-11-29T06:25:50.356Z,1003.73
2022-11-29T06:26:49.213Z,1004.19
2022-11-29T06:27:49.199Z,1004.12
2022-11-29T06:28:49.785Z,1003.99
2022-11-29T06:29:49.167Z,1004.23
2022-11-29T06:30:49.166Z,1003.93
2022-11-29T06:31:49.480Z,1003.27
2022-11-29T06:32:49.126Z,1003.14
2022-11-29T06:33:49.154Z,1003.16
2022-11-29T06:34:49.170Z,1003.08
2022-11-29T06:35:49.530Z,1002.52
2022-11-29T06:36:49.108Z,1002.37
2022-11-29T06:37:49.132Z,1002.35
2022-11-29T06:38:49.105Z,1002.58
2022-11-29T06:39:49.060Z,1002.72
2022-11-29T06:40:49.058Z,1003.66
2022-11-29T06:41:49.045Z,1004.10
2022-11-29T06:42:49.082Z,1004.60
2022-11-29T06:43:49.064Z,1004.43
2022-11-29T06:44:49.020Z,1004.67
2022-11-29T06:45:48.992Z,1004.75
2022-11-29T06:46:49.036Z,1005.24
2022-11-29T06:47:48.989Z,1005.90
2022-11-29T06:48:48.979Z,1005.80
2022-11-29T06:49:48.960Z,1005.60
2022-11-29T06:50:48.960Z,1005.62
2022-11-29T06:51:48.937Z,1005.96
2022-11-29T06:52:48.962Z,1006.35
2022-11-29T06:53:48.909Z,1006.77
2022-11-29T06:54:49.169Z,1007.24
2022-11-29T06:55:48.891Z,1007.47
2022-11-29T06:56:48.870Z,1007.99
2022-11-29T06:57:48.879Z,1008.33
2022-11-29T06:58:48.869Z,1008.26
2022-11-29T06:59:48.878Z,1008.12
2022-11-29T07:00:49.871Z,1007.96
2022-11-29T07:01:48.847Z,1007.79
2022-11-29T07:02:48.800Z,1007.72
2022-11-29T07:03:48.800Z,1007.82
2022-11-29T07:04:48.975Z,1008.51
2022-11-29T07:05:48.773Z,1008.44
2022-11-29T07:06:48.741Z,1008.57
2022-11-29T07:07:48.815Z,1008.79
2022-11-29T07:08:48.730Z,1008.49
2022-11-29T07:09:48.721Z,1008.32
2022-11-29T07:10:48.701Z,1008.03
2022-11-29T07:11:48.710Z,1007.95
2022-11-29T07:12:48.689Z,1008.01
2022-11-29T07:13:49.630Z,1008.21
2022-11-29T07:14:48.691Z,1009.01
2022-11-29T07:15:48.719Z,1009.52
2022-11-29T07:16:52.016Z,1009.64
2022-11-29T07:17:49.633Z,1010.16
2022-11-29T07:18:48.611Z,1010.15
2022-11-29T07:19:48.604Z,1010.22
2022-11-29T07:20:48.625Z,1010.61
2022-11-29T07:21:48.587Z,1010.66
2022-11-29T07:22:48.625Z,1010.41
2022-11-29T07:23:56.117Z,1010.55
2022-11-29T07:24:48.599Z,1010.28
2022-11-29T07:25:57.167Z,1010.35
2022-11-29T07:26:59.595Z,1010.13
2022-11-29T07:27:48.567Z,1009.28
2022-11-29T07:28:56.761Z,1008.74
2022-11-29T07:29:48.599Z,1008.74
2022-11-29T07:30:56.749Z,1009.29
2022-11-29T07:31:48.541Z,1010.46
2022-11-29T07:32:50.915Z,1010.90
2022-11-29T07:33:48.482Z,1011.28
2022-11-29T07:34:48.543Z,1011.77
2022-11-29T07:35:48.429Z,1011.74
2022-11-29T07:36:52.324Z,1011.75
2022-11-29T07:37:48.388Z,1011.11
2022-11-29T07:38:48.419Z,1011.58
2022-11-29T07:39:48.390Z,1011.74
2022-11-29T07:40:48.382Z,1011.86
2022-11-29T07:41:48.378Z,1012.17
2022-11-29T07:42:48.351Z,1012.05
2022-11-29T07:43:48.331Z,1012.34
2022-11-29T07:44:48.477Z,1012.60
2022-11-29T07:45:48.322Z,1012.89
2022-11-29T07:46:48.352Z,1013.55
2022-11-29T07:47:48.313Z,1013.99
2022-11-29T07:48:48.310Z,1014.63
2022-11-29T07:49:48.267Z,1014.35
2022-11-29T07:50:48.551Z,1014.35
2022-11-29T07:51:48.250Z,1013.89
2022-11-29T07:52:48.232Z,1013.74
2022-11-29T07:53:48.232Z,1013.20
2022-11-29T07:54:48.332Z,1012.69
2022-11-29T07:55:48.209Z,1012.87
2022-11-29T07:56:48.181Z,1012.40
2022-11-29T07:57:48.183Z,1011.88
2022-11-29T07:58:48.217Z,1011.75
2022-11-29T07:59:48.157Z,1012.34
2022-11-29T08:00:48.233Z,1012.21
2022-11-29T08:01:48.255Z,1012.22
2022-11-29T08:02:48.122Z,1012.33
2022-11-29T08:03:48.111Z,1012.70
2022-11-29T08:04:48.335Z,1013.19
2022-11-29T08:05:48.108Z,1013.34
2022-11-29T08:06:48.076Z,1013.64
2022-11-29T08:07:48.118Z,1014.12
2022-11-29T08:08:48.092Z,1014.11
2022-11-29T08:09:48.157Z,1014.12
2022-11-29T08:10:48.047Z,1014.34
2022-11-29T08:11:48.032Z,1014.38
2022-11-29T08:12:48.031Z,1014.40
2022-11-29T08:13:48.024Z,1014.34
2022-11-29T08:14:48.146Z,1014.49
2022-11-29T08:15:48.012Z,1014.44
2022-11-29T08:16:47.996Z,1014.43
2022-11-29T08:17:47.943Z,1014.45
2022-11-29T08:18:48.496Z,1014.37
2022-11-29T08:19:47.972Z,1014.04
2022-11-29T08:20:47.934Z,1013.64
2022-11-29T08:21:47.922Z,1013.96
2022-11-29T08:22:47.905Z,1014.71
2022-11-29T08:23:47.884Z,1014.55
2022-11-29T08:24:48.132Z,1015.17
2022-11-29T08:25:47.883Z,1015.42
2022-11-29T08:26:47.873Z,1015.96
2022-11-29T08:27:47.835Z,1016.50
2022-11-29T08:28:47.846Z,1017.14
2022-11-29T08:29:47.825Z,1017.69
2022-11-29T08:30:47.862Z,1017.93
2022-11-29T08:31:47.824Z,1017.92
2022-11-29T08:32:51.358Z,1018.51
2022-11-29T08:33:47.797Z,1018.89
2022-11-29T08:34:48.032Z,1019.88
2022-11-29T08:35:47.775Z,1019.76
2022-11-29T08:36:47.780Z,1020.11
2022-11-29T08:37:47.762Z,1020.83
2022-11-29T08:38:47.817Z,1021.28
2022-11-29T08:39:47.761Z,1021.79
2022-11-29T08:40:49.545Z,1021.88
2022-11-29T08:41:47.696Z,1021.73
2022-11-29T08:42:47.717Z,1021.30
2022-11-29T08:43:48.005Z,1019.37
2022-11-29T08:44:47.814Z,1018.31
2022-11-29T08:45:47.732Z,1019.44
2022-11-29T08:46:47.647Z,1018.77
2022-11-29T08:47:47.622Z,1018.65
2022-11-29T08:48:47.646Z,1019.06
2022-11-29T08:49:47.641Z,1018.57
2022-11-29T08:50:47.587Z,1018.31
2022-11-29T08:51:47.576Z,1018.44
2022-11-29T08:52:47.576Z,1019.70
2022-11-29T08:53:47.557Z,1019.16
2022-11-29T08:54:47.895Z,1019.87
2022-11-29T08:55:47.536Z,1019.76
2022-11-29T08:57:30.976Z,1019.31
2022-11-29T08:57:48.501Z,1018.15
2022-11-29T08:58:47.486Z,1019.66
2022-11-29T08:59:47.495Z,1020.53
2022-11-29T09:00:47.567Z,1019.80
2022-11-29T09:01:47.540Z,1019.67
2022-11-29T09:02:47.510Z,1019.49
2022-11-29T09:03:47.447Z,1021.39
2022-11-29T09:04:47.443Z,1022.02
2022-11-29T09:05:47.447Z,1023.28
2022-11-29T09:06:47.399Z,1023.38
2022-11-29T09:07:47.552Z,1023.83
2022-11-29T09:08:47.375Z,1024.32
2022-11-29T09:09:47.381Z,1025.02
2022-11-29T09:10:47.366Z,1025.01
2022-11-29T09:11:49.599Z,1025.50
2022-11-29T09:12:47.376Z,1026.42
2022-11-29T09:13:47.338Z,1026.82
2022-11-29T09:14:47.409Z,1027.01
2022-11-29T09:15:47.334Z,1027.17
2022-11-29T09:16:47.334Z,1027.60
2022-11-29T09:17:47.297Z,1027.55
2022-11-29T09:18:51.464Z,1026.88
2022-11-29T09:19:47.272Z,1025.52
2022-11-29T09:20:47.244Z,1024.81
2022-11-29T09:21:47.241Z,1024.33
2022-11-29T09:22:47.229Z,1023.66
2022-11-29T09:23:47.268Z,1023.04
2022-11-29T09:24:47.579Z,1021.83
2022-11-29T09:25:47.193Z,1021.57
2022-11-29T09:26:47.210Z,1020.54
2022-11-29T09:27:47.150Z,1019.90
2022-11-29T09:28:47.142Z,1021.17
2022-11-29T09:29:47.143Z,1022.32
2022-11-29T09:30:47.152Z,1023.56
2022-11-29T09:31:47.182Z,1024.17
2022-11-29T09:32:47.100Z,1023.42
2022-11-29T09:33:47.122Z,1022.79
2022-11-29T09:34:47.583Z,1023.26
2022-11-29T09:35:47.082Z,1023.42
2022-11-29T09:36:47.190Z,1023.09
2022-11-29T09:37:47.062Z,1022.76
2022-11-29T09:38:47.041Z,1021.97
2022-11-29T09:39:47.049Z,1021.18
2022-11-29T09:40:47.064Z,1021.19
2022-11-29T09:41:48.538Z,1021.03
2022-11-29T09:42:47.045Z,1019.58
2022-11-29T09:43:47.009Z,1019.17
2022-11-29T09:44:47.393Z,1018.38
2022-11-29T09:45:47.031Z,1018.28
2022-11-29T09:46:46.973Z,1019.60
2022-11-29T09:47:46.942Z,1019.31
2022-11-29T09:48:46.968Z,1017.76
2022-11-29T09:49:46.925Z,1015.82
2022-11-29T09:50:46.916Z,1015.81
2022-11-29T09:51:46.913Z,1016.05
2022-11-29T09:52:46.903Z,1017.09
2022-11-29T09:53:46.895Z,1017.10
2022-11-29T09:54:47.111Z,1015.74
2022-11-29T09:55:47.133Z,1016.17
2022-11-29T09:56:46.856Z,1015.18
2022-11-29T09:57:46.862Z,1015.50
2022-11-29T09:58:46.825Z,1015.70
2022-11-29T09:59:46.825Z,1015.20
2022-11-29T10:00:46.831Z,1014.43
2022-11-29T10:01:46.796Z,1014.34
2022-11-29T10:02:46.819Z,1014.92
2022-11-29T10:03:46.799Z,1016.20
2022-11-29T10:04:47.024Z,1016.65
2022-11-29T10:05:46.766Z,1016.37
2022-11-29T10:06:46.724Z,1015.51
2022-11-29T10:07:46.794Z,1015.65
2022-11-29T10:08:46.703Z,1015.84
2022-11-29T10:09:46.710Z,1015.14
2022-11-29T10:10:46.678Z,1015.26
2022-11-29T10:11:46.686Z,1015.46
2022-11-29T10:12:46.695Z,1015.75
2022-11-29T10:13:46.654Z,1016.39
2022-11-29T10:14:46.890Z,1015.96
2022-11-29T10:15:46.637Z,1016.13
2022-11-29T10:16:46.641Z,1016.94
2022-11-29T10:17:46.613Z,1018.19
2022-11-29T10:18:46.595Z,1019.23
2022-11-29T10:19:47.515Z,1020.27
2022-11-29T10:20:49.212Z,1020.39
2022-11-29T10:21:46.565Z,1020.86
2022-11-29T10:22:46.573Z,1022.61
2022-11-29T10:23:46.578Z,1023.94
2022-11-29T10:24:46.816Z,1022.69
2022-11-29T10:25:46.524Z,1022.38
2022-11-29T10:26:46.505Z,1022.00
2022-11-29T10:27:46.495Z,1021.53
2022-11-29T10:28:46.477Z,1020.79
2022-11-29T10:29:46.486Z,1019.58
2022-11-29T10:30:46.484Z,1020.10
2022-11-29T10:31:46.448Z,1021.48
2022-11-29T10:32:46.448Z,1020.70
2022-11-29T10:33:46.416Z,1018.94
2022-11-29T10:34:46.825Z,1017.46
2022-11-29T10:35:46.405Z,1017.37
2022-11-29T10:36:46.390Z,1017.61
2022-11-29T10:38:07.838Z,1016.58
2022-11-29T10:38:47.373Z,1016.70
2022-11-29T10:39:46.356Z,1017.85
2022-11-29T10:40:46.357Z,1018.46
2022-11-29T10:41:46.364Z,1018.81
2022-11-29T10:42:46.327Z,1019.58
2022-11-29T10:43:46.299Z,1020.13
2022-11-29T10:44:46.646Z,1020.68
2022-11-29T10:45:46.314Z,1021.02
2022-11-29T10:46:46.291Z,1021.55
2022-11-29T10:47:46.277Z,1022.71
2022-11-29T10:48:46.261Z,1023.58
2022-11-29T10:49:46.251Z,1023.65
2022-11-29T10:50:46.238Z,1023.38
2022-11-29T10:51:46.218Z,1022.66
2022-11-29T10:52:46.227Z,1022.50
2022-11-29T10:53:46.192Z,1022.68
2022-11-29T10:54:46.354Z,1023.52
2022-11-29T10:55:46.192Z,1023.99
2022-11-29T10:56:46.157Z,1023.01
2022-11-29T10:57:46.178Z,1021.78
2022-11-29T10:58:46.140Z,1020.94
2022-11-29T10:59:46.129Z,1020.62
2022-11-29T11:00:46.150Z,1020.13
2022-11-29T11:01:46.129Z,1019.79
2022-11-29T11:02:46.110Z,1019.88
2022-11-29T11:03:49.014Z,1019.81
2022-11-29T11:04:47.333Z,1020.36
2022-11-29T11:05:46.155Z,1019.35
2022-11-29T11:06:46.040Z,1018.36
2022-11-29T11:07:46.118Z,1017.70
2022-11-29T11:08:46.021Z,1017.23
2022-11-29T11:09:46.041Z,1016.11
2022-11-29T11:10:51.366Z,1014.48
2022-11-29T11:11:46.998Z,1013.50
2022-11-29T11:12:45.986Z,1014.40
2022-11-29T11:13:46.031Z,1016.31
2022-11-29T11:14:46.300Z,1018.04
2022-11-29T11:15:45.944Z,1018.36
2022-11-29T11:16:46.009Z,1018.33
2022-11-29T11:17:45.941Z,1017.69
2022-11-29T11:18:45.900Z,1017.79
2022-11-29T11:19:45.921Z,1017.83
2022-11-29T11:20:45.895Z,1016.86
2022-11-29T11:21:45.887Z,1016.75
2022-11-29T11:22:45.871Z,1016.62
2022-11-29T11:23:45.872Z,1017.07
2022-11-29T11:24:45.980Z,1018.41
2022-11-29T11:25:45.831Z,1019.62
2022-11-29T11:26:45.855Z,1020.65
2022-11-29T11:27:45.812Z,1022.59
2022-11-29T11:28:45.835Z,1025.06
2022-11-29T11:29:45.792Z,1025.72
2022-11-29T11:30:45.833Z,1024.65
2022-11-29T11:31:45.753Z,1024.86
2022-11-29T11:32:45.816Z,1024.74
2022-11-29T11:33:45.775Z,1025.01
2022-11-29T11:34:45.992Z,1025.53
2022-11-29T11:35:45.711Z,1025.41
2022-11-29T11:36:45.711Z,1026.88
2022-11-29T11:37:45.710Z,1028.78
2022-11-29T11:38:45.712Z,1030.11
2022-11-29T11:39:45.727Z,1031.08
2022-11-29T11:40:45.685Z,1029.79
2022-11-29T11:41:45.653Z,1027.18
2022-11-29T11:42:45.654Z,1024.11
2022-11-29T11:43:45.677Z,1018.98
2022-11-29T11:44:47.822Z,1014.67
2022-11-29T11:45:45.636Z,1012.52
2022-11-29T11:46:45.667Z,1011.62
2022-11-29T11:47:45.596Z,1010.40
2022-11-29T11:48:45.577Z,1012.85
2022-11-29T11:49:45.567Z,1014.63
2022-11-29T11:50:45.571Z,1015.92
2022-11-29T11:51:45.533Z,1018.77
2022-11-29T11:52:50.393Z,1023.90
2022-11-29T11:53:46.535Z,1025.87
2022-11-29T11:54:45.606Z,1025.89
2022-11-29T11:55:45.497Z,1025.59
2022-11-29T11:56:45.514Z,1026.79
2022-11-29T11:57:45.606Z,1030.25
2022-11-29T11:58:45.467Z,1030.59
2022-11-29T11:59:45.457Z,1028.63
2022-11-29T12:01:03.547Z,1027.54
2022-11-29T12:01:46.420Z,1027.04
2022-11-29T12:02:45.471Z,1025.92
2022-11-29T12:03:45.517Z,1024.83
2022-11-29T12:04:45.632Z,1024.41
2022-11-29T12:05:46.476Z,1024.17